createdAt,value
2022-09-13T00:00:06.102Z,4.10
2022-09-13T00:01:06.161Z,4.30
2022-09-13T00:02:06.143Z,3.70
2022-09-13T00:03:06.080Z,4.50
2022-09-13T00:04:06.052Z,3.90
2022-09-13T00:05:06.041Z,4.50
2022-09-13T00:06:06.031Z,4.30
2022-09-13T00:07:06.199Z,3.70
2022-09-13T00:08:06.016Z,4.20
2022-09-13T00:09:06.007Z,4.10
2022-09-13T00:10:06.015Z,3.50
2022-09-13T00:11:05.973Z,4.20
2022-09-13T00:12:05.972Z,3.80
2022-09-13T00:13:06.112Z,3.60
2022-09-13T00:14:05.942Z,3.70
2022-09-13T00:15:05.934Z,3.80
2022-09-13T00:16:06.000Z,4.40
2022-09-13T00:17:05.930Z,3.80
2022-09-13T00:18:05.916Z,4.20
2022-09-13T00:19:06.137Z,5.50
2022-09-13T00:20:05.882Z,4.00
2022-09-13T00:21:05.881Z,4.50
2022-09-13T00:22:05.882Z,5.00
2022-09-13T00:23:05.862Z,3.90
2022-09-13T00:24:05.844Z,4.90
2022-09-13T00:25:06.499Z,4.60
2022-09-13T00:26:05.824Z,4.60
2022-09-13T00:27:05.813Z,4.90
2022-09-13T00:28:05.815Z,5.20
2022-09-13T00:29:05.785Z,4.90
2022-09-13T00:30:05.776Z,4.70
2022-09-13T00:31:05.940Z,6.10
2022-09-13T00:32:05.787Z,5.20
2022-09-13T00:33:05.736Z,5.30
2022-09-13T00:34:05.742Z,6.30
2022-09-13T00:35:05.722Z,7.10
2022-09-13T00:36:05.704Z,5.50
2022-09-13T00:37:05.871Z,5.50
2022-09-13T00:38:05.682Z,5.60
2022-09-13T00:39:05.682Z,5.70
2022-09-13T00:40:05.745Z,6.20
2022-09-13T00:41:05.651Z,6.20
2022-09-13T00:42:05.652Z,5.90
2022-09-13T00:43:05.801Z,6.00
2022-09-13T00:44:05.613Z,6.30
2022-09-13T00:45:05.620Z,5.70
2022-09-13T00:46:05.670Z,6.10
2022-09-13T00:47:05.593Z,5.70
2022-09-13T00:48:05.573Z,6.00
2022-09-13T00:49:05.918Z,6.00
2022-09-13T00:50:05.553Z,6.10
2022-09-13T00:51:05.553Z,6.40
2022-09-13T00:52:05.540Z,5.80
2022-09-13T00:53:05.524Z,6.10
2022-09-13T00:54:05.513Z,5.50
2022-09-13T00:55:05.667Z,5.50
2022-09-13T00:56:05.482Z,5.60
2022-09-13T00:57:05.494Z,5.20
2022-09-13T00:58:05.477Z,5.00
2022-09-13T00:59:05.453Z,5.90
2022-09-13T01:00:05.733Z,5.30
2022-09-13T01:01:05.481Z,5.40
2022-09-13T01:02:05.440Z,5.40
2022-09-13T01:03:05.415Z,5.40
2022-09-13T01:04:07.800Z,5.80
2022-09-13T01:05:05.388Z,5.50
2022-09-13T01:06:05.551Z,7.50
2022-09-13T01:07:05.364Z,5.90
2022-09-13T01:08:05.367Z,4.90
2022-09-13T01:09:05.356Z,5.50
2022-09-13T01:10:05.335Z,5.30
2022-09-13T01:11:05.343Z,5.20
2022-09-13T01:12:05.548Z,5.00
2022-09-13T01:13:05.293Z,4.90
2022-09-13T01:14:05.310Z,4.80
2022-09-13T01:15:05.285Z,4.90
2022-09-13T01:16:05.312Z,4.80
2022-09-13T01:17:05.293Z,5.10
2022-09-13T01:18:05.494Z,4.60
2022-09-13T01:19:05.250Z,6.20
2022-09-13T01:20:05.243Z,5.90
2022-09-13T01:21:05.232Z,4.50
2022-09-13T01:22:05.212Z,5.60
2022-09-13T01:23:05.201Z,3.90
2022-09-13T01:24:05.515Z,4.80
2022-09-13T01:25:05.180Z,5.10
2022-09-13T01:26:05.187Z,4.20
2022-09-13T01:27:05.148Z,4.40
2022-09-13T01:28:05.150Z,4.80
2022-09-13T01:29:05.165Z,4.60
2022-09-13T01:30:05.284Z,5.00
2022-09-13T01:31:05.122Z,5.00
2022-09-13T01:32:05.144Z,4.20
2022-09-13T01:33:05.085Z,5.80
2022-09-13T01:34:05.071Z,4.70
2022-09-13T01:35:05.392Z,5.80
2022-09-13T01:36:05.051Z,4.30
2022-09-13T01:37:05.043Z,5.10
2022-09-13T01:38:05.065Z,5.40
2022-09-13T01:39:05.036Z,4.90
2022-09-13T01:40:05.110Z,4.70
2022-09-13T01:41:05.177Z,5.20
2022-09-13T01:42:04.993Z,5.00
2022-09-13T01:43:04.985Z,6.60
2022-09-13T01:44:05.002Z,7.50
2022-09-13T01:45:04.974Z,8.10
2022-09-13T01:46:04.981Z,8.80
2022-09-13T01:47:05.140Z,10.10
2022-09-13T01:48:04.931Z,10.90
2022-09-13T01:49:04.924Z,11.00
2022-09-13T01:50:04.927Z,11.90
2022-09-13T01:51:04.894Z,11.00
2022-09-13T01:52:05.077Z,12.10
2022-09-13T01:53:04.885Z,12.30
2022-09-13T01:54:04.856Z,11.60
2022-09-13T01:55:04.856Z,11.90
2022-09-13T01:56:04.859Z,11.80
2022-09-13T01:57:04.833Z,10.70
2022-09-13T01:58:04.975Z,10.70
2022-09-13T01:59:04.833Z,10.00
2022-09-13T02:00:04.791Z,9.70
2022-09-13T02:01:04.833Z,10.10
2022-09-13T02:02:04.850Z,10.00
2022-09-13T02:03:04.762Z,9.30
2022-09-13T02:04:05.064Z,9.30
2022-09-13T02:05:04.747Z,9.80
2022-09-13T02:06:04.750Z,8.60
2022-09-13T02:07:04.724Z,8.60
2022-09-13T02:08:04.714Z,8.60
2022-09-13T02:09:04.726Z,8.40
2022-09-13T02:10:04.926Z,8.70
2022-09-13T02:11:04.697Z,7.90
2022-09-13T02:12:04.687Z,7.90
2022-09-13T02:13:04.676Z,7.80
2022-09-13T02:14:04.642Z,7.30
2022-09-13T02:15:04.644Z,7.60
2022-09-13T02:16:04.981Z,7.80
2022-09-13T02:17:04.624Z,7.30
2022-09-13T02:18:04.604Z,7.10
2022-09-13T02:19:59.837Z,6.30
2022-09-13T02:20:59.817Z,6.40
2022-09-13T02:21:59.967Z,6.50
2022-09-13T02:22:59.808Z,6.50
2022-09-13T02:23:59.797Z,6.30
2022-09-13T02:24:59.779Z,6.40
2022-09-13T02:25:59.778Z,6.50
2022-09-13T02:26:59.763Z,6.00
2022-09-13T02:27:59.906Z,6.20
2022-09-13T02:28:59.754Z,5.50
2022-09-13T02:29:59.727Z,6.10
2022-09-13T02:30:59.708Z,6.10
2022-09-13T02:31:59.823Z,5.30
2022-09-13T02:32:59.853Z,5.90
2022-09-13T02:33:59.687Z,5.60
2022-09-13T02:34:59.671Z,5.30
2022-09-13T02:35:59.657Z,5.50
2022-09-13T02:36:59.657Z,5.40
2022-09-13T02:37:59.638Z,6.20
2022-09-13T02:38:59.796Z,5.10
2022-09-13T02:39:59.639Z,5.50
2022-09-13T02:40:59.615Z,5.50
2022-09-13T02:41:59.586Z,6.70
2022-09-13T02:42:59.595Z,6.00
2022-09-13T02:43:59.571Z,6.10
2022-09-13T02:44:59.779Z,5.60
2022-09-13T02:45:59.582Z,6.90
2022-09-13T02:46:59.542Z,6.00
2022-09-13T02:47:59.527Z,6.40
2022-09-13T02:48:59.519Z,6.20
2022-09-13T02:49:59.502Z,5.60
2022-09-13T02:50:59.866Z,5.70
2022-09-13T02:51:59.479Z,5.80
2022-09-13T02:52:59.473Z,5.90
2022-09-13T02:53:59.471Z,5.60
2022-09-13T02:54:59.461Z,5.80
2022-09-13T02:55:59.441Z,5.50
2022-09-13T02:56:59.593Z,5.60
2022-09-13T02:57:59.427Z,5.70
2022-09-13T02:58:59.414Z,7.10
2022-09-13T02:59:59.401Z,5.50
2022-09-13T03:00:59.424Z,5.80
2022-09-13T03:01:59.428Z,5.40
2022-09-13T03:02:59.692Z,5.70
2022-09-13T03:03:59.357Z,5.90
2022-09-13T03:04:59.346Z,5.80
2022-09-13T03:05:59.339Z,5.80
2022-09-13T03:06:59.318Z,5.30
2022-09-13T03:07:59.308Z,5.10
2022-09-13T03:08:59.621Z,6.10
2022-09-13T03:09:59.280Z,5.60
2022-09-13T03:10:59.270Z,6.00
2022-09-13T03:11:59.257Z,7.10
2022-09-13T03:12:59.254Z,7.60
2022-09-13T03:13:59.246Z,6.10
2022-09-13T03:14:59.449Z,7.00
2022-09-13T03:15:59.231Z,5.60
2022-09-13T03:16:59.221Z,5.50
2022-09-13T03:17:59.199Z,5.80
2022-09-13T03:18:59.207Z,7.80
2022-09-13T03:19:59.429Z,9.50
2022-09-13T03:20:59.174Z,9.00
2022-09-13T03:21:59.171Z,9.00
2022-09-13T03:22:59.157Z,9.80
2022-09-13T03:23:59.128Z,8.80
2022-09-13T03:24:59.123Z,9.00
2022-09-13T03:25:59.453Z,7.70
2022-09-13T03:26:59.106Z,7.60
2022-09-13T03:27:59.089Z,7.40
2022-09-13T03:28:59.080Z,7.20
2022-09-13T03:29:59.069Z,6.90
2022-09-13T03:30:59.057Z,7.70
2022-09-13T03:31:59.275Z,6.80
2022-09-13T03:32:59.038Z,6.40
2022-09-13T03:33:59.025Z,6.10
2022-09-13T03:34:59.017Z,6.80
2022-09-13T03:35:59.010Z,6.40
2022-09-13T03:36:58.995Z,6.10
2022-09-13T03:37:59.132Z,6.60
2022-09-13T03:38:58.981Z,7.00
2022-09-13T03:39:59.004Z,6.70
2022-09-13T03:40:59.269Z,6.40
2022-09-13T03:41:58.944Z,6.60
2022-09-13T03:42:58.936Z,6.40
2022-09-13T03:43:58.912Z,6.60
2022-09-13T03:44:58.918Z,6.80
2022-09-13T03:45:58.914Z,6.40
2022-09-13T03:46:59.041Z,6.20
2022-09-13T03:47:58.860Z,6.60
2022-09-13T03:48:58.849Z,6.20
2022-09-13T03:49:58.867Z,6.20
2022-09-13T03:50:58.850Z,6.60
2022-09-13T03:51:59.010Z,6.60
2022-09-13T03:52:58.830Z,6.40
2022-09-13T03:53:58.814Z,6.20
2022-09-13T03:54:58.779Z,5.80
2022-09-13T03:55:58.798Z,6.90
2022-09-13T03:56:58.774Z,6.20
2022-09-13T03:57:58.925Z,6.20
2022-09-13T03:58:58.761Z,6.30
2022-09-13T03:59:58.728Z,6.50
2022-09-13T04:00:58.771Z,8.00
2022-09-13T04:01:58.780Z,6.50
2022-09-13T04:02:58.710Z,7.80
2022-09-13T04:03:59.000Z,7.80
2022-09-13T04:04:58.688Z,6.70
2022-09-13T04:05:58.668Z,7.00
2022-09-13T04:06:58.657Z,6.40
2022-09-13T04:07:58.650Z,6.70
2022-09-13T04:08:58.648Z,6.80
2022-09-13T04:09:58.788Z,6.60
2022-09-13T04:10:58.618Z,6.20
2022-09-13T04:11:58.601Z,6.40
2022-09-13T04:12:58.588Z,6.40
2022-09-13T04:13:58.578Z,6.20
2022-09-13T04:14:58.577Z,6.10
2022-09-13T04:15:58.798Z,6.10
2022-09-13T04:16:58.549Z,5.90
2022-09-13T04:17:58.551Z,6.90
2022-09-13T04:18:59.106Z,5.70
2022-09-13T04:19:58.508Z,6.20
2022-09-13T04:20:58.518Z,5.90
2022-09-13T04:21:58.662Z,6.30
2022-09-13T04:22:58.481Z,6.80
2022-09-13T04:23:58.478Z,6.90
2022-09-13T04:25:02.192Z,6.60
2022-09-13T04:25:58.461Z,6.00
2022-09-13T04:26:58.441Z,6.30
2022-09-13T04:27:58.675Z,5.70
2022-09-13T04:28:58.438Z,6.60
2022-09-13T04:29:58.413Z,6.70
2022-09-13T04:30:58.406Z,5.80
2022-09-13T04:31:58.452Z,5.80
2022-09-13T04:32:58.378Z,6.60
2022-09-13T04:33:58.529Z,6.50
2022-09-13T04:34:58.367Z,5.40
2022-09-13T04:35:58.340Z,6.70
2022-09-13T04:36:58.329Z,5.80
2022-09-13T04:37:58.324Z,6.10
2022-09-13T04:38:58.319Z,6.00
2022-09-13T04:39:58.486Z,6.50
2022-09-13T04:40:58.294Z,6.40
2022-09-13T04:41:58.289Z,6.20
2022-09-13T04:42:58.279Z,6.60
2022-09-13T04:43:58.279Z,6.50
2022-09-13T04:44:58.268Z,5.90
2022-09-13T04:45:58.611Z,7.40
2022-09-13T04:46:58.331Z,7.20
2022-09-13T04:47:58.218Z,7.00
2022-09-13T04:48:58.209Z,6.90
2022-09-13T04:49:58.189Z,6.40
2022-09-13T04:50:58.191Z,6.40
2022-09-13T04:51:58.339Z,6.30
2022-09-13T04:52:58.163Z,6.00
2022-09-13T04:53:58.155Z,6.30
2022-09-13T04:54:58.148Z,6.00
2022-09-13T04:55:58.122Z,6.00
2022-09-13T04:56:58.124Z,6.50
2022-09-13T04:57:58.264Z,5.90
2022-09-13T04:58:58.102Z,6.60
2022-09-13T04:59:58.086Z,6.50
2022-09-13T05:00:58.128Z,5.90
2022-09-13T05:01:58.124Z,6.70
2022-09-13T05:02:58.051Z,6.60
2022-09-13T05:03:58.198Z,7.30
2022-09-13T05:04:58.031Z,6.60
2022-09-13T05:05:58.009Z,6.10
2022-09-13T05:06:58.007Z,5.90
2022-09-13T05:07:57.999Z,6.30
2022-09-13T05:08:57.990Z,6.30
2022-09-13T05:09:58.159Z,8.40
2022-09-13T05:10:57.949Z,6.60
2022-09-13T05:11:57.952Z,7.30
2022-09-13T05:12:57.939Z,6.40
2022-09-13T05:13:57.929Z,7.00
2022-09-13T05:14:57.927Z,6.30
2022-09-13T05:15:58.175Z,6.50
2022-09-13T05:16:57.900Z,7.20
2022-09-13T05:17:57.889Z,7.30
2022-09-13T05:18:57.880Z,6.50
2022-09-13T05:19:57.870Z,6.70
2022-09-13T05:20:58.024Z,5.70
2022-09-13T05:21:57.835Z,7.20
2022-09-13T05:22:57.838Z,5.90
2022-09-13T05:23:57.819Z,5.80
2022-09-13T05:24:57.809Z,5.80
2022-09-13T05:25:57.789Z,6.00
2022-09-13T05:26:57.990Z,6.10
2022-09-13T05:27:57.784Z,6.20
2022-09-13T05:28:57.772Z,7.00
2022-09-13T05:29:57.757Z,7.50
2022-09-13T05:30:57.792Z,5.60
2022-09-13T05:31:57.729Z,8.70
2022-09-13T05:32:57.878Z,5.50
2022-09-13T05:33:57.716Z,6.90
2022-09-13T05:34:57.697Z,7.00
2022-09-13T05:35:57.687Z,6.30
2022-09-13T05:36:57.691Z,6.20
2022-09-13T05:37:57.677Z,6.10
2022-09-13T05:39:19.180Z,6.00
2022-09-13T05:40:13.953Z,6.20
2022-09-13T05:40:58.712Z,6.80
2022-09-13T05:41:57.618Z,6.30
2022-09-13T05:42:57.609Z,6.50
2022-09-13T05:44:02.069Z,6.30
2022-09-13T05:44:58.915Z,6.80
2022-09-13T05:45:57.605Z,6.30
2022-09-13T05:46:57.588Z,7.40
2022-09-13T05:47:57.549Z,5.60
2022-09-13T05:48:57.543Z,6.30
2022-09-13T05:50:27.260Z,6.20
2022-09-13T05:50:59.032Z,5.80
2022-09-13T05:51:57.499Z,5.60
2022-09-13T05:52:57.499Z,6.30
2022-09-13T05:53:57.490Z,6.70
2022-09-13T05:54:57.481Z,8.20
2022-09-13T05:55:57.476Z,5.90
2022-09-13T05:56:57.679Z,7.10
2022-09-13T05:57:57.439Z,7.40
2022-09-13T05:58:57.431Z,8.10
2022-09-13T05:59:57.413Z,6.40
2022-09-13T06:00:57.413Z,6.90
2022-09-13T06:01:57.424Z,5.90
2022-09-13T06:02:57.580Z,5.80
2022-09-13T06:03:57.401Z,6.90
2022-09-13T06:04:57.374Z,6.40
2022-09-13T06:05:57.355Z,5.80
2022-09-13T06:06:57.350Z,6.60
2022-09-13T06:07:57.329Z,7.00
2022-09-13T06:08:57.506Z,6.20
2022-09-13T06:09:57.330Z,7.30
2022-09-13T06:10:57.298Z,6.50
2022-09-13T06:11:57.289Z,6.20
2022-09-13T06:12:57.292Z,6.80
2022-09-13T06:13:57.263Z,7.30
2022-09-13T06:14:57.419Z,6.80
2022-09-13T06:15:57.284Z,8.70
2022-09-13T06:16:57.236Z,8.50
2022-09-13T06:17:57.223Z,7.00
2022-09-13T06:18:57.220Z,8.00
2022-09-13T06:19:57.199Z,8.70
2022-09-13T06:20:57.349Z,6.70
2022-09-13T06:21:57.189Z,8.30
2022-09-13T06:22:57.170Z,7.00
2022-09-13T06:23:57.152Z,6.70
2022-09-13T06:24:57.155Z,5.80
2022-09-13T06:25:57.164Z,8.80
2022-09-13T06:26:57.493Z,7.60
2022-09-13T06:27:57.176Z,6.90
2022-09-13T06:28:57.130Z,7.40
2022-09-13T06:29:57.100Z,6.30
2022-09-13T06:30:57.158Z,7.20
2022-09-13T06:31:57.084Z,6.70
2022-09-13T06:32:57.119Z,7.10
2022-09-13T06:33:57.043Z,7.20
2022-09-13T06:34:57.041Z,7.60
2022-09-13T06:35:57.049Z,7.30
2022-09-13T06:36:57.046Z,7.70
2022-09-13T06:37:57.002Z,6.40
2022-09-13T06:38:57.218Z,7.10
2022-09-13T06:39:57.031Z,7.00
2022-09-13T06:40:56.986Z,10.40
2022-09-13T06:41:56.982Z,6.80
2022-09-13T06:42:56.950Z,8.40
2022-09-13T06:43:56.981Z,10.80
2022-09-13T06:44:57.109Z,10.40
2022-09-13T06:45:56.935Z,11.10
2022-09-13T06:46:56.905Z,9.30
2022-09-13T06:47:56.900Z,8.70
2022-09-13T06:48:56.879Z,8.50
2022-09-13T06:49:57.101Z,7.70
2022-09-13T06:50:56.870Z,7.30
2022-09-13T06:51:56.858Z,7.40
2022-09-13T06:52:56.834Z,11.90
2022-09-13T06:53:56.959Z,6.80
2022-09-13T06:54:56.810Z,7.30
2022-09-13T06:55:56.970Z,7.20
2022-09-13T06:56:56.798Z,6.60
2022-09-13T06:57:56.790Z,7.10
2022-09-13T06:58:56.769Z,7.30
2022-09-13T06:59:56.750Z,12.30
2022-09-13T07:00:56.780Z,16.60
2022-09-13T07:01:56.998Z,11.40
2022-09-13T07:02:56.721Z,10.20
2022-09-13T07:03:56.718Z,8.50
2022-09-13T07:04:56.722Z,8.60
2022-09-13T07:05:56.697Z,8.60
2022-09-13T07:06:56.690Z,8.30
2022-09-13T07:07:56.829Z,9.60
2022-09-13T07:08:56.653Z,8.40
2022-09-13T07:09:56.658Z,7.60
2022-09-13T07:10:56.642Z,6.70
2022-09-13T07:11:56.640Z,7.20
2022-09-13T07:12:56.627Z,6.60
2022-09-13T07:13:56.760Z,6.90
2022-09-13T07:14:56.741Z,7.50
2022-09-13T07:15:56.728Z,6.90
2022-09-13T07:16:56.567Z,6.50
2022-09-13T07:17:56.559Z,6.60
2022-09-13T07:18:56.552Z,6.50
2022-09-13T07:19:56.751Z,5.80
2022-09-13T07:20:56.521Z,6.30
2022-09-13T07:21:56.520Z,5.90
2022-09-13T07:22:56.501Z,6.20
2022-09-13T07:23:56.511Z,5.90
2022-09-13T07:24:56.489Z,6.10
2022-09-13T07:25:56.632Z,7.60
2022-09-13T07:26:56.460Z,6.10
2022-09-13T07:27:56.452Z,6.90
2022-09-13T07:28:56.442Z,6.30
2022-09-13T07:29:56.436Z,6.50
2022-09-13T07:30:56.525Z,6.80
2022-09-13T07:31:56.575Z,6.40
2022-09-13T07:32:56.397Z,7.00
2022-09-13T07:33:56.401Z,6.80
2022-09-13T07:34:56.372Z,7.20
2022-09-13T07:35:56.362Z,7.60
2022-09-13T07:36:56.365Z,7.50
2022-09-13T07:37:56.517Z,8.50
2022-09-13T07:38:56.338Z,7.60
2022-09-13T07:39:56.340Z,7.20
2022-09-13T07:40:56.308Z,7.30
2022-09-13T07:41:56.302Z,8.50
2022-09-13T07:42:56.283Z,6.90
2022-09-13T07:43:56.531Z,7.10
2022-09-13T07:44:56.263Z,7.70
2022-09-13T07:45:56.303Z,7.00
2022-09-13T07:46:56.242Z,7.30
2022-09-13T07:47:56.240Z,7.80
2022-09-13T07:48:56.220Z,7.20
2022-09-13T07:49:56.386Z,7.30
2022-09-13T07:50:56.249Z,7.10
2022-09-13T07:51:56.191Z,6.80
2022-09-13T07:52:56.176Z,6.80
2022-09-13T07:53:57.526Z,7.70
2022-09-13T07:54:56.151Z,6.40
2022-09-13T07:55:56.314Z,6.20
2022-09-13T07:56:56.132Z,7.40
2022-09-13T07:57:56.166Z,7.30
2022-09-13T07:58:56.102Z,5.90
2022-09-13T07:59:56.102Z,6.10
2022-09-13T08:00:56.092Z,6.20
2022-09-13T08:01:57.308Z,6.40
2022-09-13T08:02:56.065Z,6.30
2022-09-13T08:03:56.079Z,6.30
2022-09-13T08:04:56.044Z,6.00
2022-09-13T08:05:56.042Z,5.90
2022-09-13T08:06:56.023Z,7.40
2022-09-13T08:07:56.191Z,6.40
2022-09-13T08:08:56.014Z,5.90
2022-09-13T08:09:55.992Z,6.70
2022-09-13T08:10:55.977Z,6.40
2022-09-13T08:11:55.971Z,6.90
2022-09-13T08:12:55.967Z,6.10
2022-09-13T08:13:56.172Z,6.30
2022-09-13T08:14:55.932Z,5.80
2022-09-13T08:15:55.993Z,6.50
2022-09-13T08:16:56.043Z,6.30
2022-09-13T08:17:55.935Z,5.70
2022-09-13T08:18:55.892Z,5.80
2022-09-13T08:19:56.071Z,6.00
2022-09-13T08:20:55.867Z,5.40
2022-09-13T08:21:55.863Z,5.30
2022-09-13T08:22:55.842Z,4.90
2022-09-13T08:23:55.864Z,5.70
2022-09-13T08:24:55.820Z,5.70
2022-09-13T08:25:56.064Z,6.40
2022-09-13T08:26:55.807Z,6.10
2022-09-13T08:27:55.807Z,6.40
2022-09-13T08:28:55.812Z,7.50
2022-09-13T08:29:55.798Z,5.90
2022-09-13T08:30:55.789Z,7.50
2022-09-13T08:31:55.925Z,6.10
2022-09-13T08:32:55.732Z,6.10
2022-09-13T08:33:55.741Z,6.00
2022-09-13T08:34:55.713Z,5.70
2022-09-13T08:35:55.702Z,6.90
2022-09-13T08:36:55.683Z,6.30
2022-09-13T08:37:55.848Z,8.20
2022-09-13T08:38:55.670Z,7.10
2022-09-13T08:39:55.707Z,5.90
2022-09-13T08:40:55.670Z,7.60
2022-09-13T08:41:55.644Z,7.30
2022-09-13T08:42:55.623Z,8.70
2022-09-13T08:43:55.797Z,7.70
2022-09-13T08:44:55.610Z,6.10
2022-09-13T08:45:55.628Z,9.30
2022-09-13T08:46:55.582Z,6.80
2022-09-13T08:47:55.577Z,7.40
2022-09-13T08:48:55.583Z,6.40
2022-09-13T08:49:55.724Z,8.80
2022-09-13T08:50:55.573Z,7.90
2022-09-13T08:51:55.533Z,10.30
2022-09-13T08:52:55.537Z,11.30
2022-09-13T08:53:55.518Z,10.60
2022-09-13T08:54:58.304Z,8.90
2022-09-13T08:55:55.728Z,8.10
2022-09-13T08:56:55.504Z,8.00
2022-09-13T08:57:55.476Z,8.40
2022-09-13T08:58:55.444Z,8.50
2022-09-13T08:59:55.446Z,8.00
2022-09-13T09:00:55.442Z,7.60
2022-09-13T09:01:55.753Z,7.30
2022-09-13T09:02:55.445Z,6.90
2022-09-13T09:03:55.408Z,6.60
2022-09-13T09:04:55.383Z,6.40
2022-09-13T09:05:55.376Z,7.30
2022-09-13T09:06:57.989Z,7.90
2022-09-13T09:07:55.784Z,7.30
2022-09-13T09:08:55.347Z,6.60
2022-09-13T09:09:55.335Z,9.90
2022-09-13T09:10:55.325Z,9.50
2022-09-13T09:11:55.995Z,12.10
2022-09-13T09:12:55.294Z,12.30
2022-09-13T09:13:55.473Z,10.50
2022-09-13T09:14:55.293Z,9.90
2022-09-13T09:15:55.372Z,12.00
2022-09-13T09:16:55.255Z,9.20
2022-09-13T09:17:55.252Z,9.70
2022-09-13T09:18:55.263Z,10.70
2022-09-13T09:19:55.394Z,9.10
2022-09-13T09:20:55.214Z,11.00
2022-09-13T09:21:55.209Z,7.70
2022-09-13T09:22:55.235Z,7.10
2022-09-13T09:23:55.185Z,7.50
2022-09-13T09:24:55.166Z,8.50
2022-09-13T09:25:55.350Z,9.90
2022-09-13T09:26:55.145Z,8.50
2022-09-13T09:27:55.161Z,10.30
2022-09-13T09:28:55.126Z,7.50
2022-09-13T09:29:55.127Z,9.50
2022-09-13T09:30:55.175Z,6.70
2022-09-13T09:31:55.264Z,9.00
2022-09-13T09:32:55.085Z,9.80
2022-09-13T09:33:55.073Z,8.80
2022-09-13T09:34:55.054Z,13.40
2022-09-13T09:35:55.048Z,15.50
2022-09-13T09:36:55.046Z,11.70
2022-09-13T09:37:55.194Z,10.20
2022-09-13T09:38:55.072Z,8.00
2022-09-13T09:39:55.059Z,7.10
2022-09-13T09:40:54.985Z,6.80
2022-09-13T09:41:54.985Z,7.40
2022-09-13T09:42:54.976Z,6.40
2022-09-13T09:43:55.131Z,5.70
2022-09-13T09:44:54.945Z,5.50
2022-09-13T09:45:55.002Z,5.40
2022-09-13T09:46:54.941Z,5.60
2022-09-13T09:47:54.916Z,5.70
2022-09-13T09:48:54.910Z,4.80
2022-09-13T09:49:55.054Z,5.10
2022-09-13T09:50:54.880Z,4.70
2022-09-13T09:51:54.875Z,5.40
2022-09-13T09:52:54.864Z,5.20
2022-09-13T09:53:55.025Z,4.90
2022-09-13T09:54:54.836Z,5.20
2022-09-13T09:55:54.848Z,4.90
2022-09-13T09:56:54.816Z,5.20
2022-09-13T09:57:54.820Z,5.40
2022-09-13T09:58:54.795Z,4.90
2022-09-13T09:59:55.005Z,5.20
2022-09-13T10:00:54.771Z,5.20
2022-09-13T10:01:54.796Z,7.30
2022-09-13T10:02:54.750Z,5.40
2022-09-13T10:03:54.737Z,6.00
2022-09-13T10:04:54.727Z,4.70
2022-09-13T10:05:54.946Z,5.50
2022-09-13T10:06:54.716Z,6.60
2022-09-13T10:07:54.731Z,5.00
2022-09-13T10:08:54.707Z,5.40
2022-09-13T10:09:54.685Z,5.30
2022-09-13T10:10:54.700Z,8.30
2022-09-13T10:11:54.892Z,6.60
2022-09-13T10:12:54.646Z,6.20
2022-09-13T10:13:54.635Z,8.10
2022-09-13T10:14:54.634Z,6.00
2022-09-13T10:15:54.637Z,7.10
2022-09-13T10:16:54.661Z,6.50
2022-09-13T10:17:54.760Z,8.20
2022-09-13T10:18:54.763Z,6.30
2022-09-13T10:19:54.567Z,6.00
2022-09-13T10:20:54.562Z,7.80
2022-09-13T10:21:54.547Z,5.90
2022-09-13T10:22:54.538Z,5.50
2022-09-13T10:23:55.164Z,4.60
2022-09-13T10:24:54.510Z,5.00
2022-09-13T10:25:54.505Z,4.70
2022-09-13T10:26:54.497Z,6.30
2022-09-13T10:27:54.507Z,4.90
2022-09-13T10:28:54.458Z,5.40
2022-09-13T10:29:54.668Z,5.50
2022-09-13T10:30:54.468Z,6.00
2022-09-13T10:31:54.445Z,5.70
2022-09-13T10:32:54.428Z,5.90
2022-09-13T10:33:54.422Z,5.20
2022-09-13T10:34:54.406Z,4.10
2022-09-13T10:35:54.567Z,4.40
2022-09-13T10:36:54.381Z,4.30
2022-09-13T10:37:54.367Z,4.20
2022-09-13T10:38:54.366Z,4.70
2022-09-13T10:39:54.385Z,3.50
2022-09-13T10:40:54.339Z,3.50
2022-09-13T10:41:54.529Z,3.50
2022-09-13T10:42:54.317Z,5.00
2022-09-13T10:43:54.312Z,3.90
2022-09-13T10:44:54.348Z,5.90
2022-09-13T10:45:54.347Z,4.90
2022-09-13T10:46:54.269Z,4.00
2022-09-13T10:47:54.439Z,4.80
2022-09-13T10:48:54.282Z,4.00
2022-09-13T10:49:54.260Z,4.80
2022-09-13T10:50:54.227Z,3.80
2022-09-13T10:51:54.228Z,3.60
2022-09-13T10:52:54.208Z,4.20
2022-09-13T10:53:54.378Z,3.70
2022-09-13T10:54:54.201Z,3.90
2022-09-13T10:55:54.183Z,4.40
2022-09-13T10:56:54.171Z,5.40
2022-09-13T10:57:54.175Z,4.10
2022-09-13T10:58:54.138Z,3.90
2022-09-13T10:59:54.370Z,4.00
2022-09-13T11:00:54.227Z,4.00
2022-09-13T11:01:54.113Z,4.60
2022-09-13T11:02:54.104Z,3.90
2022-09-13T11:03:54.158Z,5.10
2022-09-13T11:04:54.207Z,5.20
2022-09-13T11:05:54.243Z,3.30
2022-09-13T11:06:57.289Z,3.90
2022-09-13T11:07:55.042Z,3.30
2022-09-13T11:08:54.037Z,4.40
2022-09-13T11:09:54.026Z,3.50
2022-09-13T11:10:54.019Z,4.90
2022-09-13T11:11:54.012Z,6.70
2022-09-13T11:12:54.161Z,3.30
2022-09-13T11:13:53.997Z,5.50
2022-09-13T11:14:53.997Z,4.30
2022-09-13T11:15:53.959Z,3.10
2022-09-13T11:16:54.037Z,3.10
2022-09-13T11:17:53.930Z,3.70
2022-09-13T11:18:54.271Z,2.70
2022-09-13T11:19:56.924Z,2.80
2022-09-13T11:20:53.909Z,4.70
2022-09-13T11:21:53.899Z,2.30
2022-09-13T11:22:53.885Z,2.90
2022-09-13T11:23:53.922Z,5.40
2022-09-13T11:24:54.030Z,3.40
2022-09-13T11:25:53.850Z,2.70
2022-09-13T11:26:53.856Z,2.30
2022-09-13T11:27:53.835Z,2.40
2022-09-13T11:28:54.019Z,2.10
2022-09-13T11:29:53.832Z,1.90
2022-09-13T11:30:53.802Z,1.50
2022-09-13T11:31:53.849Z,3.70
2022-09-13T11:32:53.790Z,2.00
2022-09-13T11:33:53.788Z,1.50
2022-09-13T11:34:53.909Z,1.50
2022-09-13T11:35:53.751Z,1.60
2022-09-13T11:36:53.744Z,2.20
2022-09-13T11:37:53.725Z,1.40
2022-09-13T11:38:53.716Z,2.10
2022-09-13T11:39:53.760Z,1.40
2022-09-13T11:40:53.892Z,1.70
2022-09-13T11:41:53.681Z,1.60
2022-09-13T11:42:53.682Z,3.40
2022-09-13T11:43:53.664Z,2.40
2022-09-13T11:44:53.674Z,2.10
2022-09-13T11:45:53.724Z,2.60
2022-09-13T11:46:53.867Z,1.90
2022-09-13T11:47:53.621Z,1.70
2022-09-13T11:48:53.621Z,1.90
2022-09-13T11:49:53.602Z,2.00
2022-09-13T11:50:53.591Z,1.90
2022-09-13T11:51:53.579Z,1.60
2022-09-13T11:52:53.629Z,1.50
2022-09-13T11:53:53.553Z,1.40
2022-09-13T11:54:53.544Z,1.90
2022-09-13T11:55:53.524Z,1.30
2022-09-13T11:56:53.523Z,1.90
2022-09-13T11:57:53.510Z,2.10
2022-09-13T11:58:53.539Z,2.10
2022-09-13T11:59:53.479Z,2.60
2022-09-13T12:00:53.477Z,2.90
2022-09-13T12:01:53.544Z,4.40
2022-09-13T12:02:53.537Z,2.40
2022-09-13T12:03:53.462Z,2.60
2022-09-13T12:05:18.022Z,3.50
2022-09-13T12:05:54.422Z,1.70
2022-09-13T12:06:53.425Z,2.00
2022-09-13T12:07:53.403Z,1.50
2022-09-13T12:08:53.393Z,2.40
2022-09-13T12:09:53.375Z,1.60
2022-09-13T12:10:53.561Z,1.50
2022-09-13T12:11:53.356Z,2.10
2022-09-13T12:12:53.373Z,1.90
2022-09-13T12:13:53.389Z,1.20
2022-09-13T12:14:53.353Z,1.50
2022-09-13T12:15:53.324Z,1.50
2022-09-13T12:16:53.396Z,2.10
2022-09-13T12:17:53.298Z,2.80
2022-09-13T12:18:53.307Z,3.20
2022-09-13T12:19:53.282Z,1.30
2022-09-13T12:20:53.263Z,1.20
2022-09-13T12:21:53.253Z,3.50
2022-09-13T12:22:53.475Z,2.00
2022-09-13T12:23:53.233Z,3.30
2022-09-13T12:24:53.221Z,3.70
2022-09-13T12:25:53.214Z,3.50
2022-09-13T12:26:53.205Z,4.20
2022-09-13T12:27:53.198Z,1.70
2022-09-13T12:28:53.341Z,1.80
2022-09-13T12:29:53.173Z,2.60
2022-09-13T12:30:53.160Z,1.50
2022-09-13T12:31:53.167Z,1.60
2022-09-13T12:32:58.031Z,2.90
2022-09-13T12:33:54.474Z,2.30
2022-09-13T12:34:53.115Z,4.20
2022-09-13T12:35:53.116Z,6.30
2022-09-13T12:36:53.093Z,1.20
2022-09-13T12:37:53.084Z,3.30
2022-09-13T12:38:53.072Z,2.50
2022-09-13T12:39:53.310Z,2.50
2022-09-13T12:40:53.053Z,2.50
2022-09-13T12:41:53.036Z,3.30
2022-09-13T12:42:53.068Z,1.70
2022-09-13T12:43:53.024Z,1.30
2022-09-13T12:44:53.013Z,1.30
2022-09-13T12:45:53.194Z,3.80
2022-09-13T12:46:52.985Z,2.10
2022-09-13T12:47:52.984Z,3.10
2022-09-13T12:48:53.027Z,1.20
2022-09-13T12:49:52.957Z,1.60
2022-09-13T12:50:52.952Z,3.90
2022-09-13T12:51:53.085Z,1.70
2022-09-13T12:52:52.927Z,2.40
2022-09-13T12:53:52.917Z,1.30
2022-09-13T12:54:52.911Z,1.30
2022-09-13T12:55:52.883Z,2.20
2022-09-13T12:56:56.940Z,2.30
2022-09-13T12:57:52.862Z,2.30
2022-09-13T12:58:52.858Z,1.40
2022-09-13T12:59:52.847Z,1.80
2022-09-13T13:00:52.936Z,2.10
2022-09-13T13:01:52.989Z,3.40
2022-09-13T13:02:54.725Z,2.80
2022-09-13T13:03:52.803Z,4.10
2022-09-13T13:04:52.798Z,2.80
2022-09-13T13:05:52.776Z,1.50
2022-09-13T13:06:52.773Z,2.90
2022-09-13T13:07:52.764Z,2.10
2022-09-13T13:08:53.018Z,2.30
2022-09-13T13:09:52.736Z,1.50
2022-09-13T13:10:52.733Z,1.10
2022-09-13T13:11:52.713Z,1.90
2022-09-13T13:12:52.730Z,1.60
2022-09-13T13:13:52.695Z,2.90
2022-09-13T13:14:52.849Z,3.90
2022-09-13T13:15:52.672Z,2.30
2022-09-13T13:16:52.673Z,3.00
2022-09-13T13:17:52.656Z,1.50